sensor_id;sensor_type;location;lat;lon;timestamp;pressure;altitude;pressure_sealevel;temperature;humidity
10145;BME280;5113;41.822;23.564;2023-04-07T00:02:34;-10992.63;;;2.11;58.95
10145;BME280;5113;41.822;23.564;2023-04-07T00:05:41;-10987.00;;;1.90;58.00
10145;BME280;5113;41.822;23.564;2023-04-07T00:08:47;-10989.38;;;1.99;58.26
10145;BME280;5113;41.822;23.564;2023-04-07T00:11:53;-10995.69;;;2.22;57.43
10145;BME280;5113;41.822;23.564;2023-04-07T00:15:00;-10988.13;;;1.94;57.73
10145;BME280;5113;41.822;23.564;2023-04-07T00:18:08;-10989.53;;;1.99;58.06
10145;BME280;5113;41.822;23.564;2023-04-07T00:21:14;-10990.38;;;2.03;57.35
10145;BME280;5113;41.822;23.564;2023-04-07T00:24:21;-10988.53;;;1.96;57.58
10145;BME280;5113;41.822;23.564;2023-04-07T00:27:37;-10992.34;;;2.10;57.47
10145;BME280;5113;41.822;23.564;2023-04-07T00:30:44;-10985.88;;;1.86;57.29
10145;BME280;5113;41.822;23.564;2023-04-07T00:33:52;-10994.84;;;2.19;57.14
10145;BME280;5113;41.822;23.564;2023-04-07T00:37:00;-10988.81;;;1.97;57.52
10145;BME280;5113;41.822;23.564;2023-04-07T00:40:07;-10988.41;;;1.95;57.32
10145;BME280;5113;41.822;23.564;2023-04-07T00:43:14;-10989.25;;;1.98;57.34
10145;BME280;5113;41.822;23.564;2023-04-07T00:46:21;-10988.69;;;1.96;57.05
10145;BME280;5113;41.822;23.564;2023-04-07T00:49:30;-10986.16;;;1.87;57.40
10145;BME280;5113;41.822;23.564;2023-04-07T00:52:36;-10982.25;;;1.73;57.97
10145;BME280;5113;41.822;23.564;2023-04-07T00:55:43;-10984.47;;;1.81;57.92
10145;BME280;5113;41.822;23.564;2023-04-07T00:58:49;-10987.44;;;1.92;56.32
10145;BME280;5113;41.822;23.564;2023-04-07T01:02:01;-10985.19;;;1.84;57.55
10145;BME280;5113;41.822;23.564;2023-04-07T01:05:13;-10984.75;;;1.82;56.54
10145;BME280;5113;41.822;23.564;2023-04-07T01:08:28;-10980.56;;;1.67;56.98
10145;BME280;5113;41.822;23.564;2023-04-07T01:11:39;-10983.91;;;1.79;57.28
10145;BME280;5113;41.822;23.564;2023-04-07T01:14:50;-10989.25;;;1.98;57.13
10145;BME280;5113;41.822;23.564;2023-04-07T01:18:00;-10980.00;;;1.65;56.77
10145;BME280;5113;41.822;23.564;2023-04-07T01:21:13;-10987.56;;;1.92;56.60
10145;BME280;5113;41.822;23.564;2023-04-07T01:24:41;-10980.69;;;1.68;56.24
10145;BME280;5113;41.822;23.564;2023-04-07T01:27:59;-10985.88;;;1.86;55.54
10145;BME280;5113;41.822;23.564;2023-04-07T01:31:16;-10985.59;;;1.85;56.46
10145;BME280;5113;41.822;23.564;2023-04-07T01:34:23;-10985.19;;;1.84;56.51
10145;BME280;5113;41.822;23.564;2023-04-07T01:37:31;-10980.84;;;1.68;56.08
10145;BME280;5113;41.822;23.564;2023-04-07T01:40:38;-10982.66;;;1.75;55.64
10145;BME280;5113;41.822;23.564;2023-04-07T01:43:46;-10984.75;;;1.82;55.12
10145;BME280;5113;41.822;23.564;2023-04-07T01:46:55;-10986.16;;;1.87;55.53
10145;BME280;5113;41.822;23.564;2023-04-07T01:50:01;-10985.03;;;1.83;54.79
10145;BME280;5113;41.822;23.564;2023-04-07T01:53:10;-10983.91;;;1.79;55.10
10145;BME280;5113;41.822;23.564;2023-04-07T01:56:16;-10986.88;;;1.90;55.75
10145;BME280;5113;41.822;23.564;2023-04-07T01:59:23;-10982.50;;;1.74;56.13
10145;BME280;5113;41.822;23.564;2023-04-07T02:02:32;-10985.75;;;1.86;55.90
10145;BME280;5113;41.822;23.564;2023-04-07T02:05:42;-10987.69;;;1.93;55.66
10145;BME280;5113;41.822;23.564;2023-04-07T02:08:51;-10989.53;;;1.99;54.75
10145;BME280;5113;41.822;23.564;2023-04-07T02:12:01;-10981.97;;;1.72;55.41
10145;BME280;5113;41.822;23.564;2023-04-07T02:15:11;-10980.28;;;1.66;56.23
10145;BME280;5113;41.822;23.564;2023-04-07T02:18:19;-10977.47;;;1.56;56.37
10145;BME280;5113;41.822;23.564;2023-04-07T02:21:28;-10979.56;;;1.63;56.29
10145;BME280;5113;41.822;23.564;2023-04-07T02:24:35;-10985.59;;;1.85;56.73
10145;BME280;5113;41.822;23.564;2023-04-07T02:27:42;-10980.00;;;1.65;56.37
10145;BME280;5113;41.822;23.564;2023-04-07T02:30:48;-10978.88;;;1.61;56.78
10145;BME280;5113;41.822;23.564;2023-04-07T02:33:56;-10980.28;;;1.66;56.22
10145;BME280;5113;41.822;23.564;2023-04-07T02:37:02;-10976.63;;;1.53;56.15
10145;BME280;5113;41.822;23.564;2023-04-07T02:40:09;-10980.28;;;1.66;55.72
10145;BME280;5113;41.822;23.564;2023-04-07T02:43:16;-10979.72;;;1.64;56.13
10145;BME280;5113;41.822;23.564;2023-04-07T02:46:23;-10977.19;;;1.55;56.23
10145;BME280;5113;41.822;23.564;2023-04-07T02:49:30;-10976.78;;;1.53;56.46
10145;BME280;5113;41.822;23.564;2023-04-07T02:52:37;-10974.38;;;1.45;57.07
10145;BME280;5113;41.822;23.564;2023-04-07T02:55:44;-10970.88;;;1.32;58.14
10145;BME280;5113;41.822;23.564;2023-04-07T02:58:51;-10973.97;;;1.43;57.82
10145;BME280;5113;41.822;23.564;2023-04-07T03:01:57;-10971.16;;;1.33;57.83
10145;BME280;5113;41.822;23.564;2023-04-07T03:05:05;-10975.66;;;1.49;58.89
10145;BME280;5113;41.822;23.564;2023-04-07T03:08:12;-10974.38;;;1.45;58.20
10145;BME280;5113;41.822;23.564;2023-04-07T03:11:18;-10972.84;;;1.39;57.81
10145;BME280;5113;41.822;23.564;2023-04-07T03:14:24;-10973.69;;;1.42;57.86
10145;BME280;5113;41.822;23.564;2023-04-07T03:17:32;-10970.47;;;1.30;57.70
10145;BME280;5113;41.822;23.564;2023-04-07T03:20:40;-10969.75;;;1.28;58.10
10145;BME280;5113;41.822;23.564;2023-04-07T03:23:46;-10971.31;;;1.33;58.23
10145;BME280;5113;41.822;23.564;2023-04-07T03:26:52;-10974.94;;;1.47;57.45
10145;BME280;5113;41.822;23.564;2023-04-07T03:29:58;-10975.66;;;1.49;56.49
10145;BME280;5113;41.822;23.564;2023-04-07T03:33:05;-10979.56;;;1.63;56.76
10145;BME280;5113;41.822;23.564;2023-04-07T03:36:13;-10974.94;;;1.47;56.90
10145;BME280;5113;41.822;23.564;2023-04-07T03:39:19;-10980.28;;;1.66;57.26
10145;BME280;5113;41.822;23.564;2023-04-07T03:42:27;-10976.78;;;1.53;56.71
10145;BME280;5113;41.822;23.564;2023-04-07T03:45:33;-10979.72;;;1.64;56.79
10145;BME280;5113;41.822;23.564;2023-04-07T03:48:39;-10979.00;;;1.61;56.43
10145;BME280;5113;41.822;23.564;2023-04-07T03:51:47;-10978.59;;;1.60;56.71
10145;BME280;5113;41.822;23.564;2023-04-07T03:54:53;-10977.34;;;1.55;56.71
10145;BME280;5113;41.822;23.564;2023-04-07T03:58:00;-10981.53;;;1.71;56.66
10145;BME280;5113;41.822;23.564;2023-04-07T04:01:07;-10978.88;;;1.61;56.90
10145;BME280;5113;41.822;23.564;2023-04-07T04:04:13;-10974.66;;;1.46;56.88
10145;BME280;5113;41.822;23.564;2023-04-07T04:07:22;-10977.63;;;1.56;56.67
10145;BME280;5113;41.822;23.564;2023-04-07T04:10:30;-10978.59;;;1.60;55.77
10145;BME280;5113;41.822;23.564;2023-04-07T04:13:36;-10972.16;;;1.37;56.17
10145;BME280;5113;41.822;23.564;2023-04-07T04:16:42;-10977.75;;;1.57;56.10
10145;BME280;5113;41.822;23.564;2023-04-07T04:19:48;-10977.47;;;1.56;55.98
10145;BME280;5113;41.822;23.564;2023-04-07T04:22:56;-10979.28;;;1.62;54.80
10145;BME280;5113;41.822;23.564;2023-04-07T04:26:02;-10982.38;;;1.74;54.86
10145;BME280;5113;41.822;23.564;2023-04-07T04:29:08;-10976.34;;;1.52;55.18
10145;BME280;5113;41.822;23.564;2023-04-07T04:32:15;-10978.47;;;1.59;55.22
10145;BME280;5113;41.822;23.564;2023-04-07T04:35:22;-10976.63;;;1.53;54.80
10145;BME280;5113;41.822;23.564;2023-04-07T04:38:29;-10981.41;;;1.70;54.96
10145;BME280;5113;41.822;23.564;2023-04-07T04:41:37;-10983.63;;;1.78;55.10
10145;BME280;5113;41.822;23.564;2023-04-07T04:44:43;-10989.81;;;2.01;54.08
10145;BME280;5113;41.822;23.564;2023-04-07T04:47:50;-10990.38;;;2.03;54.32
10145;BME280;5113;41.822;23.564;2023-04-07T04:50:56;-10995.97;;;2.23;53.96
10145;BME280;5113;41.822;23.564;2023-04-07T04:54:04;-11002.44;;;2.46;52.97
10145;BME280;5113;41.822;23.564;2023-04-07T04:57:11;-11014.47;;;2.90;52.86
10145;BME280;5113;41.822;23.564;2023-04-07T05:00:18;-11006.34;;;2.60;53.54
10145;BME280;5113;41.822;23.564;2023-04-07T05:03:25;-11006.22;;;2.60;56.22
10145;BME280;5113;41.822;23.564;2023-04-07T05:06:32;-11001.59;;;2.43;59.14
10145;BME280;5113;41.822;23.564;2023-04-07T05:09:40;-11019.25;;;3.07;58.99
10145;BME280;5113;41.822;23.564;2023-04-07T05:12:46;-11029.50;;;3.44;57.99
10145;BME280;5113;41.822;23.564;2023-04-07T05:15:52;-11023.19;;;3.21;58.70
10145;BME280;5113;41.822;23.564;2023-04-07T05:18:59;-11020.38;;;3.11;58.21
10145;BME280;5113;41.822;23.564;2023-04-07T05:22:05;-11015.75;;;2.94;58.15
10145;BME280;5113;41.822;23.564;2023-04-07T05:25:13;-11032.44;;;3.55;53.16
10145;BME280;5113;41.822;23.564;2023-04-07T05:28:19;-11033.41;;;3.58;52.03
10145;BME280;5113;41.822;23.564;2023-04-07T05:31:25;-11031.59;;;3.52;51.01
10145;BME280;5113;41.822;23.564;2023-04-07T05:34:32;-11034.13;;;3.61;50.13
10145;BME280;5113;41.822;23.564;2023-04-07T05:37:38;-11010.84;;;2.77;52.88
10145;BME280;5113;41.822;23.564;2023-04-07T05:40:47;-11023.19;;;3.21;54.41
10145;BME280;5113;41.822;23.564;2023-04-07T05:43:53;-11027.09;;;3.36;55.10
10145;BME280;5113;41.822;23.564;2023-04-07T05:47:00;-11028.22;;;3.40;56.91
10145;BME280;5113;41.822;23.564;2023-04-07T05:50:09;-11047.72;;;4.10;55.93
10145;BME280;5113;41.822;23.564;2023-04-07T05:53:17;-11040.84;;;3.85;55.23
10145;BME280;5113;41.822;23.564;2023-04-07T05:56:25;-11031.88;;;3.53;55.77
10145;BME280;5113;41.822;23.564;2023-04-07T05:59:31;-11051.66;;;4.24;54.47
10145;BME280;5113;41.822;23.564;2023-04-07T06:02:37;-11034.41;;;3.62;53.63
10145;BME280;5113;41.822;23.564;2023-04-07T06:05:45;-11062.47;;;4.63;50.34
10145;BME280;5113;41.822;23.564;2023-04-07T06:08:51;-11072.84;;;5.01;49.25
10145;BME280;5113;41.822;23.564;2023-04-07T06:11:59;-11059.94;;;4.54;50.35
10145;BME280;5113;41.822;23.564;2023-04-07T06:15:09;-11076.50;;;5.14;49.15
10145;BME280;5113;41.822;23.564;2023-04-07T06:18:15;-11073.12;;;5.02;49.63
10145;BME280;5113;41.822;23.564;2023-04-07T06:21:22;-11072.00;;;4.98;49.81
10145;BME280;5113;41.822;23.564;2023-04-07T06:24:29;-11083.94;;;5.41;49.08
10145;BME280;5113;41.822;23.564;2023-04-07T06:27:37;-11085.75;;;5.48;49.57
10145;BME280;5113;41.822;23.564;2023-04-07T06:30:43;-11093.63;;;5.76;49.73
10145;BME280;5113;41.822;23.564;2023-04-07T06:33:49;-11084.63;;;5.44;49.13
10145;BME280;5113;41.822;23.564;2023-04-07T06:36:56;-11078.19;;;5.20;49.54
10145;BME280;5113;41.822;23.564;2023-04-07T06:40:04;-11084.78;;;5.44;49.60
10145;BME280;5113;41.822;23.564;2023-04-07T06:43:12;-11103.03;;;6.10;48.12
10145;BME280;5113;41.822;23.564;2023-04-07T06:46:36;-11093.50;;;5.76;48.91
10145;BME280;5113;41.822;23.564;2023-04-07T06:49:43;-11099.25;;;5.96;47.22
10145;BME280;5113;41.822;23.564;2023-04-07T06:52:49;-11098.69;;;5.94;47.40
10145;BME280;5113;41.822;23.564;2023-04-07T06:56:02;-11119.59;;;6.70;47.19
10145;BME280;5113;41.822;23.564;2023-04-07T06:59:10;-11091.53;;;5.69;46.28
10145;BME280;5113;41.822;23.564;2023-04-07T07:02:17;-11129.44;;;7.06;46.20
10145;BME280;5113;41.822;23.564;2023-04-07T07:05:23;-11120.16;;;6.72;45.23
10145;BME280;5113;41.822;23.564;2023-04-07T07:08:30;-11137.31;;;7.34;43.63
10145;BME280;5113;41.822;23.564;2023-04-07T07:11:37;-11140.25;;;7.45;44.76
10145;BME280;5113;41.822;23.564;2023-04-07T07:14:45;-11126.22;;;6.94;44.29
10145;BME280;5113;41.822;23.564;2023-04-07T07:17:52;-11146.28;;;7.67;44.42
10145;BME280;5113;41.822;23.564;2023-04-07T07:20:58;-11126.78;;;6.96;42.82
10145;BME280;5113;41.822;23.564;2023-04-07T07:24:05;-11139.28;;;7.41;42.54
10145;BME280;5113;41.822;23.564;2023-04-07T07:27:11;-11144.75;;;7.61;42.98
10145;BME280;5113;41.822;23.564;2023-04-07T07:30:20;-11152.06;;;7.87;42.59
10145;BME280;5113;41.822;23.564;2023-04-07T07:33:27;-11154.31;;;7.95;43.06
10145;BME280;5113;41.822;23.564;2023-04-07T07:36:33;-11166.41;;;8.39;41.67
10145;BME280;5113;41.822;23.564;2023-04-07T07:39:39;-11153.47;;;7.92;40.83
10145;BME280;5113;41.822;23.564;2023-04-07T07:42:46;-11160.34;;;8.17;40.53
10145;BME280;5113;41.822;23.564;2023-04-07T07:45:54;-11160.91;;;8.19;41.10
10145;BME280;5113;41.822;23.564;2023-04-07T07:49:00;-11175.25;;;8.71;39.86
10145;BME280;5113;41.822;23.564;2023-04-07T07:52:09;-11142.22;;;7.52;40.82
10145;BME280;5113;41.822;23.564;2023-04-07T07:55:16;-11145.88;;;7.65;40.42
10145;BME280;5113;41.822;23.564;2023-04-07T07:58:22;-11142.09;;;7.51;39.43
10145;BME280;5113;41.822;23.564;2023-04-07T08:01:30;-11168.37;;;8.46;38.60
10145;BME280;5113;41.822;23.564;2023-04-07T08:04:36;-11161.91;;;8.23;37.45
10145;BME280;5113;41.822;23.564;2023-04-07T08:07:42;-11169.50;;;8.50;38.74
10145;BME280;5113;41.822;23.564;2023-04-07T08:10:49;-11172.03;;;8.59;38.97
10145;BME280;5113;41.822;23.564;2023-04-07T08:13:55;-11171.19;;;8.56;39.20
10145;BME280;5113;41.822;23.564;2023-04-07T08:17:02;-11185.94;;;9.10;38.40
10145;BME280;5113;41.822;23.564;2023-04-07T08:20:09;-11151.91;;;7.87;38.71
10145;BME280;5113;41.822;23.564;2023-04-07T08:23:16;-11197.31;;;9.51;38.27
10145;BME280;5113;41.822;23.564;2023-04-07T08:26:22;-11169.22;;;8.49;36.77
10145;BME280;5113;41.822;23.564;2023-04-07T08:29:29;-11198.16;;;9.54;36.69
10145;BME280;5113;41.822;23.564;2023-04-07T08:32:38;-11183.41;;;9.01;38.46
10145;BME280;5113;41.822;23.564;2023-04-07T08:35:45;-11245.56;;;11.25;36.96
10145;BME280;5113;41.822;23.564;2023-04-07T08:38:52;-11219.13;;;10.30;36.98
10145;BME280;5113;41.822;23.564;2023-04-07T08:41:58;-11227.84;;;10.61;37.44
10145;BME280;5113;41.822;23.564;2023-04-07T08:45:06;-11220.09;;;10.33;38.30
10145;BME280;5113;41.822;23.564;2023-04-07T08:48:16;-11230.22;;;10.70;38.57
10145;BME280;5113;41.822;23.564;2023-04-07T08:51:27;-11225.03;;;10.51;39.56
10145;BME280;5113;41.822;23.564;2023-04-07T08:54:33;-11229.37;;;10.67;38.21
10145;BME280;5113;41.822;23.564;2023-04-07T08:57:40;-11214.19;;;10.12;37.80
10145;BME280;5113;41.822;23.564;2023-04-07T09:00:47;-11226.00;;;10.54;38.02
10145;BME280;5113;41.822;23.564;2023-04-07T09:03:56;-11185.66;;;9.09;38.76
10145;BME280;5113;41.822;23.564;2023-04-07T09:07:02;-11205.19;;;9.79;38.98
10145;BME280;5113;41.822;23.564;2023-04-07T09:10:09;-11245.84;;;11.26;38.69
10145;BME280;5113;41.822;23.564;2023-04-07T09:13:16;-11221.09;;;10.37;37.52
10145;BME280;5113;41.822;23.564;2023-04-07T09:16:22;-11211.09;;;10.01;37.54
10145;BME280;5113;41.822;23.564;2023-04-07T09:19:30;-11232.47;;;10.78;38.01
10145;BME280;5113;41.822;23.564;2023-04-07T09:22:40;-11212.50;;;10.06;38.64
10145;BME280;5113;41.822;23.564;2023-04-07T09:25:47;-11221.94;;;10.40;38.28
10145;BME280;5113;41.822;23.564;2023-04-07T09:28:56;-11232.47;;;10.78;36.94
10145;BME280;5113;41.822;23.564;2023-04-07T09:32:02;-11221.50;;;10.38;37.54
10145;BME280;5113;41.822;23.564;2023-04-07T09:35:10;-11246.13;;;11.27;36.03
10145;BME280;5113;41.822;23.564;2023-04-07T09:38:16;-11254.44;;;11.57;37.21
10145;BME280;5113;41.822;23.564;2023-04-07T09:41:26;-11208.72;;;9.92;37.34
10145;BME280;5113;41.822;23.564;2023-04-07T09:44:38;-11223.47;;;10.45;37.60
10145;BME280;5113;41.822;23.564;2023-04-07T09:47:45;-11226.56;;;10.56;38.43
10145;BME280;5113;41.822;23.564;2023-04-07T09:51:04;-11239.50;;;11.03;37.25
10145;BME280;5113;41.822;23.564;2023-04-07T09:54:11;-11241.34;;;11.10;37.93
10145;BME280;5113;41.822;23.564;2023-04-07T09:57:18;-11264.84;;;11.95;36.64
10145;BME280;5113;41.822;23.564;2023-04-07T10:00:26;-11255.00;;;11.59;37.61
10145;BME280;5113;41.822;23.564;2023-04-07T10:03:32;-11233.19;;;10.80;37.48
10145;BME280;5113;41.822;23.564;2023-04-07T10:06:40;-11261.47;;;11.82;36.53
10145;BME280;5113;41.822;23.564;2023-04-07T10:09:47;-11251.63;;;11.47;36.40
10145;BME280;5113;41.822;23.564;2023-04-07T10:12:55;-11262.59;;;11.86;36.92
10145;BME280;5113;41.822;23.564;2023-04-07T10:16:04;-11251.63;;;11.47;35.57
10145;BME280;5113;41.822;23.564;2023-04-07T10:19:11;-11273.00;;;12.24;36.01
10145;BME280;5113;41.822;23.564;2023-04-07T10:22:19;-11274.56;;;12.30;36.35
10145;BME280;5113;41.822;23.564;2023-04-07T10:25:26;-11303.13;;;13.33;34.28
10145;BME280;5113;41.822;23.564;2023-04-07T10:28:33;-11278.50;;;12.44;35.44
10145;BME280;5113;41.822;23.564;2023-04-07T10:31:43;-11286.09;;;12.71;35.82
10145;BME280;5113;41.822;23.564;2023-04-07T10:34:59;-11272.16;;;12.21;35.70
10145;BME280;5113;41.822;23.564;2023-04-07T10:38:12;-11272.72;;;12.23;35.00
10145;BME280;5113;41.822;23.564;2023-04-07T10:41:33;-11291.31;;;12.90;34.78
10145;BME280;5113;41.822;23.564;2023-04-07T10:44:45;-11290.75;;;12.88;34.40
10145;BME280;5113;41.822;23.564;2023-04-07T10:48:10;-11290.19;;;12.86;35.32
10145;BME280;5113;41.822;23.564;2023-04-07T10:51:17;-11300.03;;;13.21;35.27
10145;BME280;5113;41.822;23.564;2023-04-07T10:54:25;-11292.84;;;12.96;34.08
10145;BME280;5113;41.822;23.564;2023-04-07T10:57:33;-11303.69;;;13.35;33.67
10145;BME280;5113;41.822;23.564;2023-04-07T11:00:39;-11295.53;;;13.05;34.10
10145;BME280;5113;41.822;23.564;2023-04-07T11:03:59;-11303.00;;;13.32;34.65
10145;BME280;5113;41.822;23.564;2023-04-07T11:07:05;-11294.69;;;13.02;34.27
10145;BME280;5113;41.822;23.564;2023-04-07T11:10:14;-11288.78;;;12.81;35.10
10145;BME280;5113;41.822;23.564;2023-04-07T11:13:22;-11280.75;;;12.52;34.84
10145;BME280;5113;41.822;23.564;2023-04-07T11:16:38;-11309.31;;;13.55;34.20
10145;BME280;5113;41.822;23.564;2023-04-07T11:19:54;-11327.63;;;14.21;33.84
10145;BME280;5113;41.822;23.564;2023-04-07T11:23:02;-11297.06;;;13.11;35.24
10145;BME280;5113;41.822;23.564;2023-04-07T11:26:14;-11284.00;;;12.64;35.18
10145;BME280;5113;41.822;23.564;2023-04-07T11:29:27;-11331.84;;;14.36;35.01
10145;BME280;5113;41.822;23.564;2023-04-07T11:32:33;-11311.56;;;13.63;33.49
10145;BME280;5113;41.822;23.564;2023-04-07T11:35:46;-11315.25;;;13.76;34.68
10145;BME280;5113;41.822;23.564;2023-04-07T11:38:53;-11279.19;;;12.46;34.91
10145;BME280;5113;41.822;23.564;2023-04-07T11:42:01;-11300.47;;;13.23;33.73
10145;BME280;5113;41.822;23.564;2023-04-07T11:45:15;-11300.59;;;13.24;33.99
10145;BME280;5113;41.822;23.564;2023-04-07T11:48:28;-11303.69;;;13.35;34.44
10145;BME280;5113;41.822;23.564;2023-04-07T11:51:34;-11274.41;;;12.29;36.16
10145;BME280;5113;41.822;23.564;2023-04-07T11:54:41;-11303.84;;;13.35;35.34
10145;BME280;5113;41.822;23.564;2023-04-07T11:57:51;-11285.13;;;12.68;35.06
10145;BME280;5113;41.822;23.564;2023-04-07T12:00:58;-11300.88;;;13.25;35.45
10145;BME280;5113;41.822;23.564;2023-04-07T12:04:11;-11256.41;;;11.64;36.13
10145;BME280;5113;41.822;23.564;2023-04-07T12:07:18;-11278.63;;;12.44;36.46
10145;BME280;5113;41.822;23.564;2023-04-07T12:10:25;-11275.13;;;12.32;35.59
10145;BME280;5113;41.822;23.564;2023-04-07T12:13:34;-11304.81;;;13.39;34.43
10145;BME280;5113;41.822;23.564;2023-04-07T12:16:40;-11300.59;;;13.24;35.25
10145;BME280;5113;41.822;23.564;2023-04-07T12:19:47;-11279.06;;;12.46;35.52
10145;BME280;5113;41.822;23.564;2023-04-07T12:22:53;-11270.91;;;12.16;34.77
10145;BME280;5113;41.822;23.564;2023-04-07T12:25:59;-11306.78;;;13.46;34.90
10145;BME280;5113;41.822;23.564;2023-04-07T12:29:07;-11303.69;;;13.35;34.30
10145;BME280;5113;41.822;23.564;2023-04-07T12:32:13;-11319.31;;;13.91;33.34
10145;BME280;5113;41.822;23.564;2023-04-07T12:35:19;-11301.44;;;13.27;35.92
10145;BME280;5113;41.822;23.564;2023-04-07T12:38:26;-11295.25;;;13.04;35.69
10145;BME280;5113;41.822;23.564;2023-04-07T12:41:32;-11292.16;;;12.93;36.16
10145;BME280;5113;41.822;23.564;2023-04-07T12:44:40;-11292.56;;;12.95;35.91
10145;BME280;5113;41.822;23.564;2023-04-07T12:47:46;-11297.78;;;13.13;35.01
10145;BME280;5113;41.822;23.564;2023-04-07T12:50:52;-11295.25;;;13.04;34.92
10145;BME280;5113;41.822;23.564;2023-04-07T12:53:59;-11324.25;;;14.09;33.93
10145;BME280;5113;41.822;23.564;2023-04-07T12:57:06;-11285.25;;;12.68;36.07
10145;BME280;5113;41.822;23.564;2023-04-07T13:00:14;-11268.50;;;12.08;36.57
10145;BME280;5113;41.822;23.564;2023-04-07T13:03:21;-11269.91;;;12.13;36.67
10145;BME280;5113;41.822;23.564;2023-04-07T13:06:27;-11268.22;;;12.07;36.59
10145;BME280;5113;41.822;23.564;2023-04-07T13:09:34;-11305.09;;;13.40;35.37
10145;BME280;5113;41.822;23.564;2023-04-07T13:12:40;-11322.84;;;14.04;35.08
10145;BME280;5113;41.822;23.564;2023-04-07T13:15:48;-11303.41;;;13.34;34.31
10145;BME280;5113;41.822;23.564;2023-04-07T13:18:54;-11302.00;;;13.29;34.77
10145;BME280;5113;41.822;23.564;2023-04-07T13:22:01;-11300.03;;;13.21;34.19
10145;BME280;5113;41.822;23.564;2023-04-07T13:25:09;-11318.47;;;13.88;33.44
10145;BME280;5113;41.822;23.564;2023-04-07T13:28:15;-11342.28;;;14.74;32.45
10145;BME280;5113;41.822;23.564;2023-04-07T13:31:25;-11373.00;;;15.84;31.85
10145;BME280;5113;41.822;23.564;2023-04-07T13:34:32;-11356.66;;;15.26;31.45
10145;BME280;5113;41.822;23.564;2023-04-07T13:37:38;-11380.75;;;16.12;31.12
10145;BME280;5113;41.822;23.564;2023-04-07T13:40:44;-11334.53;;;14.46;33.05
10145;BME280;5113;41.822;23.564;2023-04-07T13:43:53;-11335.94;;;14.51;33.46
10145;BME280;5113;41.822;23.564;2023-04-07T13:47:02;-11361.44;;;15.43;33.32
10145;BME280;5113;41.822;23.564;2023-04-07T13:50:09;-11386.50;;;16.33;32.48
10145;BME280;5113;41.822;23.564;2023-04-07T13:53:15;-11400.47;;;16.83;30.74
10145;BME280;5113;41.822;23.564;2023-04-07T13:56:23;-11424.84;;;17.71;30.67
10145;BME280;5113;41.822;23.564;2023-04-07T13:59:28;-11401.44;;;16.87;29.85
10145;BME280;5113;41.822;23.564;2023-04-07T14:02:36;-11395.53;;;16.66;30.58
10145;BME280;5113;41.822;23.564;2023-04-07T14:05:43;-11403.72;;;16.95;30.32
10145;BME280;5113;41.822;23.564;2023-04-07T14:08:49;-11393.84;;;16.60;31.34
10145;BME280;5113;41.822;23.564;2023-04-07T14:11:55;-11395.81;;;16.67;29.69
10145;BME280;5113;41.822;23.564;2023-04-07T14:15:02;-11407.38;;;17.08;29.57
10145;BME280;5113;41.822;23.564;2023-04-07T14:18:10;-11398.91;;;16.78;28.66
10145;BME280;5113;41.822;23.564;2023-04-07T14:21:17;-11372.00;;;15.81;29.07
10145;BME280;5113;41.822;23.564;2023-04-07T14:24:23;-11361.84;;;15.44;29.69
10145;BME280;5113;41.822;23.564;2023-04-07T14:27:30;-11454.47;;;18.78;27.29
10145;BME280;5113;41.822;23.564;2023-04-07T14:30:37;-11412.72;;;17.28;27.46
10145;BME280;5113;41.822;23.564;2023-04-07T14:33:44;-11461.22;;;19.02;27.01
10145;BME280;5113;41.822;23.564;2023-04-07T14:36:53;-11420.06;;;17.54;27.33
10145;BME280;5113;41.822;23.564;2023-04-07T14:40:00;-11425.41;;;17.73;27.33
10145;BME280;5113;41.822;23.564;2023-04-07T14:43:07;-11378.91;;;16.06;29.10
10145;BME280;5113;41.822;23.564;2023-04-07T14:46:14;-11381.59;;;16.15;28.79
10145;BME280;5113;41.822;23.564;2023-04-07T14:49:21;-11369.31;;;15.71;29.80
10145;BME280;5113;41.822;23.564;2023-04-07T14:52:28;-11335.22;;;14.48;30.39
10145;BME280;5113;41.822;23.564;2023-04-07T14:55:36;-11322.00;;;14.01;30.53
10145;BME280;5113;41.822;23.564;2023-04-07T14:58:42;-11338.91;;;14.62;30.89
10145;BME280;5113;41.822;23.564;2023-04-07T15:01:48;-11322.56;;;14.03;31.13
10145;BME280;5113;41.822;23.564;2023-04-07T15:04:56;-11295.81;;;13.06;32.24
10145;BME280;5113;41.822;23.564;2023-04-07T15:08:03;-11277.38;;;12.40;32.86
10145;BME280;5113;41.822;23.564;2023-04-07T15:11:09;-11258.38;;;11.71;34.32
10145;BME280;5113;41.822;23.564;2023-04-07T15:14:15;-11277.38;;;12.40;33.73
10145;BME280;5113;41.822;23.564;2023-04-07T15:17:21;-11266.69;;;12.01;34.36
10145;BME280;5113;41.822;23.564;2023-04-07T15:20:47;-11262.16;;;11.85;34.24
10145;BME280;5113;41.822;23.564;2023-04-07T15:23:53;-11266.97;;;12.02;34.42
10145;BME280;5113;41.822;23.564;2023-04-07T15:26:59;-11259.78;;;11.76;34.40
10145;BME280;5113;41.822;23.564;2023-04-07T15:30:07;-11255.00;;;11.59;34.48
10145;BME280;5113;41.822;23.564;2023-04-07T15:33:13;-11272.44;;;12.22;34.33
10145;BME280;5113;41.822;23.564;2023-04-07T15:36:21;-11248.94;;;11.37;34.94
10145;BME280;5113;41.822;23.564;2023-04-07T15:39:27;-11240.06;;;11.05;35.54
10145;BME280;5113;41.822;23.564;2023-04-07T15:42:33;-11252.19;;;11.49;35.96
10145;BME280;5113;41.822;23.564;2023-04-07T15:45:46;-11243.03;;;11.16;36.83
10145;BME280;5113;41.822;23.564;2023-04-07T15:48:52;-11247.97;;;11.34;36.82
10145;BME280;5113;41.822;23.564;2023-04-07T15:52:01;-11255.84;;;11.62;36.54
10145;BME280;5113;41.822;23.564;2023-04-07T15:55:08;-11251.06;;;11.45;36.78
10145;BME280;5113;41.822;23.564;2023-04-07T15:58:14;-11232.19;;;10.77;38.10
10145;BME280;5113;41.822;23.564;2023-04-07T16:01:20;-11239.94;;;11.05;37.73
10145;BME280;5113;41.822;23.564;2023-04-07T16:04:27;-11235.31;;;10.88;38.60
10145;BME280;5113;41.822;23.564;2023-04-07T16:07:34;-11227.69;;;10.61;39.10
10145;BME280;5113;41.822;23.564;2023-04-07T16:10:41;-11239.22;;;11.02;38.38
10145;BME280;5113;41.822;23.564;2023-04-07T16:13:47;-11227.97;;;10.62;37.91
10145;BME280;5113;41.822;23.564;2023-04-07T16:16:54;-11218.56;;;10.28;39.40
10145;BME280;5113;41.822;23.564;2023-04-07T16:20:03;-11215.47;;;10.16;39.79
10145;BME280;5113;41.822;23.564;2023-04-07T16:23:15;-11210.81;;;10.00;40.75
10145;BME280;5113;41.822;23.564;2023-04-07T16:26:22;-11211.38;;;10.02;41.08
10145;BME280;5113;41.822;23.564;2023-04-07T16:29:28;-11213.78;;;10.10;41.26